createdAt,value
2022-08-25T00:02:00.788Z,8.60
2022-08-25T00:04:30.639Z,9.70
2022-08-25T00:07:02.739Z,8.90
2022-08-25T00:09:31.727Z,9.40
2022-08-25T00:11:59.262Z,9.57
2022-08-25T00:14:30.999Z,8.87
2022-08-25T00:16:57.936Z,9.93
2022-08-25T00:19:28.874Z,10.03
2022-08-25T00:21:56.548Z,9.77
2022-08-25T00:24:24.492Z,10.10
2022-08-25T00:26:54.499Z,10.73
2022-08-25T00:29:22.805Z,10.70
2022-08-25T00:31:49.654Z,9.70
2022-08-25T00:34:24.739Z,10.03
2022-08-25T00:36:51.919Z,9.93
2022-08-25T00:39:21.124Z,10.57
2022-08-25T00:41:49.980Z,10.27
2022-08-25T00:44:20.144Z,10.73
2022-08-25T00:46:52.758Z,9.57
2022-08-25T00:49:30.278Z,10.43
2022-08-25T00:52:04.908Z,11.13
2022-08-25T00:54:47.623Z,10.10
2022-08-25T00:57:16.886Z,10.50
2022-08-25T00:59:44.505Z,10.00
2022-08-25T01:02:13.801Z,10.23
2022-08-25T01:04:48.714Z,10.37
2022-08-25T01:07:18.670Z,10.50
2022-08-25T01:09:47.721Z,10.47
2022-08-25T01:12:15.137Z,10.27
2022-08-25T01:14:46.008Z,11.17
2022-08-25T01:17:13.388Z,10.53
2022-08-25T01:19:40.349Z,10.33
2022-08-25T01:22:07.382Z,11.30
2022-08-25T01:25:01.773Z,10.97
2022-08-25T01:27:31.378Z,11.13
2022-08-25T01:29:58.248Z,9.93
2022-08-25T01:32:25.188Z,11.60
2022-08-25T01:34:52.034Z,10.73
2022-08-25T01:37:19.300Z,10.93
2022-08-25T01:39:46.684Z,11.67
2022-08-25T01:42:37.515Z,11.67
2022-08-25T01:45:05.447Z,11.33
2022-08-25T01:47:32.834Z,10.47
2022-08-25T01:49:59.756Z,11.93
2022-08-25T01:52:33.384Z,12.03
2022-08-25T01:55:00.321Z,11.50
2022-08-25T01:57:31.605Z,11.43
2022-08-25T01:59:59.071Z,12.17
2022-08-25T02:02:26.246Z,11.57
2022-08-25T02:04:53.350Z,11.93
2022-08-25T02:07:20.826Z,12.10
2022-08-25T02:09:47.707Z,11.10
2022-08-25T02:12:15.458Z,10.83
2022-08-25T02:14:42.368Z,12.33
2022-08-25T02:17:09.782Z,11.10
2022-08-25T02:19:36.734Z,11.13
2022-08-25T02:22:04.302Z,11.43
2022-08-25T02:24:31.328Z,12.30
2022-08-25T02:26:58.240Z,11.30
2022-08-25T02:29:25.366Z,12.27
2022-08-25T02:31:52.220Z,11.50
2022-08-25T02:34:19.257Z,11.93
2022-08-25T02:36:46.122Z,12.70
2022-08-25T02:39:13.051Z,12.20
2022-08-25T02:41:40.367Z,12.37
2022-08-25T02:44:08.503Z,12.73
2022-08-25T02:46:36.085Z,12.33
2022-08-25T02:49:03.556Z,11.83
2022-08-25T02:51:30.574Z,13.13
2022-08-25T02:53:59.160Z,12.33
2022-08-25T02:56:26.428Z,12.00
2022-08-25T02:58:53.833Z,12.60
2022-08-25T03:01:21.345Z,12.37
2022-08-25T03:03:51.343Z,12.63
2022-08-25T03:06:22.968Z,12.67
2022-08-25T03:08:50.272Z,12.63
2022-08-25T03:11:18.001Z,13.30
2022-08-25T03:13:44.903Z,12.43
2022-08-25T03:16:12.436Z,12.63
2022-08-25T03:18:42.005Z,12.87
2022-08-25T03:21:11.505Z,13.60
2022-08-25T03:23:38.873Z,13.67
2022-08-25T03:26:24.606Z,13.07
2022-08-25T03:28:51.690Z,13.40
2022-08-25T03:31:19.161Z,14.13
2022-08-25T03:33:46.242Z,12.97
2022-08-25T03:36:13.326Z,13.17
2022-08-25T03:38:40.611Z,13.50
2022-08-25T03:41:16.086Z,12.77
2022-08-25T03:43:44.034Z,13.60
2022-08-25T03:46:17.841Z,13.03
2022-08-25T03:48:44.939Z,12.73
2022-08-25T03:51:11.761Z,14.10
2022-08-25T03:53:38.868Z,13.53
2022-08-25T03:56:05.918Z,13.30
2022-08-25T03:58:32.735Z,13.23
2022-08-25T04:01:00.551Z,14.83
2022-08-25T04:03:27.490Z,13.87
2022-08-25T04:05:54.345Z,14.60
2022-08-25T04:08:23.242Z,13.97
2022-08-25T04:10:50.226Z,12.77
2022-08-25T04:13:18.016Z,14.10
2022-08-25T04:15:44.914Z,14.97
2022-08-25T04:18:13.398Z,15.20
2022-08-25T04:20:46.672Z,14.77
2022-08-25T04:23:13.772Z,15.53
2022-08-25T04:25:44.212Z,14.53
2022-08-25T04:28:13.248Z,16.87
2022-08-25T04:30:43.700Z,14.57
2022-08-25T04:33:10.553Z,15.40
2022-08-25T04:35:37.367Z,14.50
2022-08-25T04:38:05.493Z,14.73
2022-08-25T04:40:32.654Z,14.63
2022-08-25T04:42:59.674Z,15.00
2022-08-25T04:45:26.489Z,14.70
2022-08-25T04:47:55.111Z,14.83
2022-08-25T04:50:22.088Z,14.73
2022-08-25T04:52:49.575Z,15.60
2022-08-25T04:55:16.683Z,14.87
2022-08-25T04:57:43.722Z,14.17
2022-08-25T05:00:11.356Z,15.23
2022-08-25T05:02:38.435Z,14.83
2022-08-25T05:05:06.998Z,14.67
2022-08-25T05:07:33.925Z,15.07
2022-08-25T05:10:00.794Z,14.20
2022-08-25T05:12:29.076Z,13.83
2022-08-25T05:14:55.946Z,14.57
2022-08-25T05:17:22.883Z,14.10
2022-08-25T05:19:50.048Z,14.00
2022-08-25T05:22:16.897Z,14.33
2022-08-25T05:24:43.733Z,13.30
2022-08-25T05:27:10.666Z,13.10
2022-08-25T05:29:37.520Z,13.23
2022-08-25T05:32:04.495Z,13.23
2022-08-25T05:34:31.343Z,13.60
2022-08-25T05:37:00.242Z,13.73
2022-08-25T05:39:27.227Z,12.70
2022-08-25T05:41:54.271Z,12.83
2022-08-25T05:44:21.593Z,13.03
2022-08-25T05:46:48.743Z,13.93
2022-08-25T05:49:15.614Z,13.27
2022-08-25T05:51:42.462Z,12.57
2022-08-25T05:54:09.282Z,12.83
2022-08-25T05:56:37.018Z,12.67
2022-08-25T05:59:08.701Z,12.53
2022-08-25T06:01:57.254Z,12.10
2022-08-25T06:04:24.331Z,13.13
2022-08-25T06:06:54.989Z,11.83
2022-08-25T06:09:22.568Z,11.30
2022-08-25T06:11:54.072Z,11.87
2022-08-25T06:14:21.823Z,11.30
2022-08-25T06:16:51.587Z,11.10
2022-08-25T06:19:18.958Z,10.63
2022-08-25T06:21:45.887Z,9.80
2022-08-25T06:24:15.613Z,10.43
2022-08-25T06:26:44.279Z,10.83
2022-08-25T06:29:11.476Z,10.73
2022-08-25T06:31:38.466Z,11.07
2022-08-25T06:34:06.295Z,10.73
2022-08-25T06:36:34.154Z,11.27
2022-08-25T06:39:01.581Z,12.00
2022-08-25T06:41:36.555Z,11.43
2022-08-25T06:44:05.652Z,12.57
2022-08-25T06:46:36.616Z,12.07
2022-08-25T06:49:05.615Z,14.48
2022-08-25T06:51:35.638Z,14.80
2022-08-25T06:54:03.616Z,13.02
2022-08-25T06:56:30.527Z,11.57
2022-08-25T06:58:57.732Z,11.80
2022-08-25T07:01:27.164Z,12.45
2022-08-25T07:03:59.787Z,11.20
2022-08-25T07:06:29.261Z,10.70
2022-08-25T07:08:56.117Z,11.45
2022-08-25T07:11:23.461Z,11.80
2022-08-25T07:13:51.234Z,10.77
2022-08-25T07:16:20.510Z,12.60
2022-08-25T07:18:48.235Z,10.55
2022-08-25T07:21:16.861Z,10.27
2022-08-25T07:23:44.215Z,10.57
2022-08-25T07:26:37.286Z,10.77
2022-08-25T07:29:12.521Z,10.35
2022-08-25T07:31:39.558Z,10.13
2022-08-25T07:34:26.314Z,10.65
2022-08-25T07:36:54.571Z,10.25
2022-08-25T07:39:22.975Z,10.10
2022-08-25T07:41:52.448Z,10.93
2022-08-25T07:44:21.607Z,10.02
2022-08-25T07:46:50.184Z,11.82
2022-08-25T07:49:18.392Z,10.68
2022-08-25T07:52:05.482Z,9.60
2022-08-25T07:54:38.051Z,9.50
2022-08-25T07:57:07.692Z,9.80
2022-08-25T07:59:39.237Z,9.73
2022-08-25T08:02:08.557Z,10.40
2022-08-25T08:04:37.161Z,10.80
2022-08-25T08:07:04.819Z,11.10
2022-08-25T08:09:39.027Z,8.93
2022-08-25T08:12:06.878Z,9.75
2022-08-25T08:14:34.530Z,10.48
2022-08-25T08:17:06.667Z,12.07
2022-08-25T08:19:34.936Z,9.73
2022-08-25T08:22:03.501Z,10.70
2022-08-25T08:24:44.630Z,10.30
2022-08-25T08:27:18.094Z,9.57
2022-08-25T08:29:45.947Z,10.23
2022-08-25T08:32:13.538Z,10.07
2022-08-25T08:34:41.709Z,10.32
2022-08-25T08:37:10.478Z,10.57
2022-08-25T08:39:37.869Z,10.27
2022-08-25T08:42:26.510Z,9.90
2022-08-25T08:45:21.264Z,10.60
2022-08-25T08:48:19.789Z,11.00
2022-08-25T08:51:04.927Z,11.00
2022-08-25T08:53:46.259Z,10.43
2022-08-25T08:56:38.830Z,10.70
2022-08-25T08:59:19.149Z,10.63
2022-08-25T09:01:59.356Z,10.07
2022-08-25T09:04:37.542Z,10.80
2022-08-25T09:07:42.432Z,11.03
2022-08-25T09:10:10.328Z,11.77
2022-08-25T09:12:47.958Z,11.53
2022-08-25T09:16:01.379Z,11.00
2022-08-25T09:18:50.738Z,11.03
2022-08-25T09:21:35.217Z,10.70
2022-08-25T09:24:43.385Z,10.95
2022-08-25T09:27:34.726Z,11.40
2022-08-25T09:30:10.393Z,10.55
2022-08-25T09:33:05.204Z,11.05
2022-08-25T09:35:35.730Z,10.20
2022-08-25T09:38:13.282Z,10.50
2022-08-25T09:40:46.505Z,10.85
2022-08-25T09:43:27.136Z,10.75
2022-08-25T09:46:01.579Z,11.30
2022-08-25T09:48:42.333Z,10.97
2022-08-25T09:51:20.929Z,11.63
2022-08-25T09:53:59.653Z,11.60
2022-08-25T09:56:33.258Z,10.65
2022-08-25T09:59:34.751Z,11.00
2022-08-25T10:02:26.789Z,11.40
2022-08-25T10:04:54.661Z,11.53
2022-08-25T10:07:36.734Z,10.67
2022-08-25T10:10:18.327Z,11.55
2022-08-25T10:12:51.477Z,11.57
2022-08-25T10:15:34.699Z,12.18
2022-08-25T10:18:26.748Z,12.38
2022-08-25T10:21:07.654Z,10.77
2022-08-25T10:23:38.732Z,11.07
2022-08-25T10:26:18.229Z,11.85
2022-08-25T10:28:56.978Z,11.40
2022-08-25T10:31:35.866Z,11.32
2022-08-25T10:34:29.095Z,11.48
2022-08-25T10:37:15.345Z,11.40
2022-08-25T10:39:56.277Z,12.00
2022-08-25T10:42:26.204Z,11.33
2022-08-25T10:45:35.872Z,12.97
2022-08-25T10:48:13.041Z,12.00
2022-08-25T10:51:20.536Z,12.50
2022-08-25T10:54:17.803Z,12.47
2022-08-25T10:56:53.300Z,12.17
2022-08-25T10:59:47.137Z,11.20
2022-08-25T11:02:49.606Z,10.67
2022-08-25T11:05:40.558Z,10.87
2022-08-25T11:08:23.102Z,11.30
2022-08-25T11:10:57.426Z,10.73
2022-08-25T11:13:35.942Z,11.75
2022-08-25T11:16:17.459Z,11.03
2022-08-25T11:18:58.228Z,11.60
2022-08-25T11:21:52.038Z,10.60
2022-08-25T11:24:18.873Z,12.40
2022-08-25T11:26:56.313Z,11.67
2022-08-25T11:29:28.387Z,11.17
2022-08-25T11:32:01.217Z,10.43
2022-08-25T11:34:32.953Z,11.57
2022-08-25T11:37:11.115Z,11.32
2022-08-25T11:40:14.386Z,11.90
2022-08-25T11:43:01.875Z,10.93
2022-08-25T11:45:55.764Z,11.48
2022-08-25T11:48:28.899Z,10.93
2022-08-25T11:51:09.387Z,11.40
2022-08-25T11:53:42.479Z,11.30
2022-08-25T11:56:34.882Z,11.20
2022-08-25T11:59:02.090Z,11.67
2022-08-25T12:02:00.931Z,11.23
2022-08-25T12:04:44.337Z,10.63
2022-08-25T12:07:24.447Z,11.67
2022-08-25T12:09:51.411Z,11.27
2022-08-25T12:12:29.567Z,10.73
2022-08-25T12:15:13.864Z,10.77
2022-08-25T12:17:41.153Z,10.77
2022-08-25T12:20:08.687Z,12.47
2022-08-25T12:22:35.552Z,11.47
2022-08-25T12:25:25.127Z,12.13
2022-08-25T12:28:09.277Z,12.10
2022-08-25T12:30:57.006Z,11.30
2022-08-25T12:33:46.174Z,11.03
2022-08-25T12:36:27.841Z,10.50
2022-08-25T12:38:54.869Z,10.47
2022-08-25T12:41:27.482Z,9.90
2022-08-25T12:44:40.058Z,9.50
2022-08-25T12:47:32.442Z,9.30
2022-08-25T12:50:36.645Z,10.13
2022-08-25T12:53:34.296Z,11.30
2022-08-25T12:56:06.930Z,11.43
2022-08-25T12:59:02.352Z,9.80
2022-08-25T13:01:38.042Z,9.33
2022-08-25T13:04:43.829Z,9.50
2022-08-25T13:07:43.274Z,9.93
2022-08-25T13:10:23.727Z,9.23
2022-08-25T13:13:10.221Z,9.33
2022-08-25T13:15:46.936Z,10.17
2022-08-25T13:18:15.529Z,9.47
2022-08-25T13:20:44.236Z,8.80
2022-08-25T13:23:17.981Z,8.53
2022-08-25T13:25:53.137Z,8.33
2022-08-25T13:28:33.778Z,8.07
2022-08-25T13:31:05.094Z,8.10
2022-08-25T13:33:33.924Z,7.77
2022-08-25T13:36:22.837Z,7.80
2022-08-25T13:38:50.586Z,7.33
2022-08-25T13:41:29.246Z,7.60
2022-08-25T13:44:00.933Z,6.67
2022-08-25T13:46:28.933Z,7.53
2022-08-25T13:49:08.829Z,6.00
2022-08-25T13:51:36.667Z,6.00
2022-08-25T13:54:08.579Z,6.57
2022-08-25T13:56:40.979Z,6.07
2022-08-25T13:59:25.913Z,6.87
2022-08-25T14:01:54.794Z,6.70
2022-08-25T14:04:27.333Z,7.50
2022-08-25T14:07:22.501Z,7.50
2022-08-25T14:10:01.861Z,8.00
2022-08-25T14:12:37.650Z,7.13
2022-08-25T14:15:13.775Z,8.40
2022-08-25T14:17:44.520Z,8.23
2022-08-25T14:20:27.191Z,7.90
2022-08-25T14:22:58.239Z,7.70
2022-08-25T14:25:28.254Z,7.57
2022-08-25T14:28:08.091Z,7.27
2022-08-25T14:30:40.161Z,7.70
2022-08-25T14:33:12.323Z,8.10
2022-08-25T14:35:40.542Z,7.93
2022-08-25T14:38:12.118Z,8.17
2022-08-25T14:40:39.831Z,6.70
2022-08-25T14:43:09.900Z,8.27
2022-08-25T14:45:40.906Z,7.60
2022-08-25T14:48:10.950Z,7.87
2022-08-25T14:50:41.234Z,7.33
2022-08-25T14:53:11.397Z,7.43
2022-08-25T14:55:38.899Z,7.63
2022-08-25T14:58:07.129Z,7.43
2022-08-25T15:00:41.267Z,7.67
2022-08-25T15:03:09.434Z,7.00
2022-08-25T15:05:37.416Z,6.60
2022-08-25T15:08:22.873Z,6.93
2022-08-25T15:10:49.741Z,7.17
2022-08-25T15:13:16.598Z,7.00
2022-08-25T15:15:52.304Z,7.80
2022-08-25T15:18:21.120Z,7.13
2022-08-25T15:20:50.175Z,7.50
2022-08-25T15:23:18.598Z,7.67
2022-08-25T15:25:47.689Z,7.70
2022-08-25T15:28:17.140Z,6.97
2022-08-25T15:30:45.591Z,6.77
2022-08-25T15:33:13.475Z,7.00
2022-08-25T15:35:41.097Z,7.47
2022-08-25T15:38:08.362Z,7.57
2022-08-25T15:40:37.669Z,7.23
2022-08-25T15:43:05.718Z,7.00
2022-08-25T15:45:35.914Z,6.33
2022-08-25T15:48:04.386Z,6.70
2022-08-25T15:50:33.824Z,6.67
2022-08-25T15:53:00.923Z,6.63
2022-08-25T15:55:27.916Z,7.03
2022-08-25T15:57:55.700Z,6.77
2022-08-25T16:00:22.772Z,6.37
2022-08-25T16:02:50.341Z,7.27
2022-08-25T16:05:17.230Z,6.93
2022-08-25T16:07:46.090Z,6.67
2022-08-25T16:10:18.496Z,6.60
2022-08-25T16:12:46.052Z,6.70
2022-08-25T16:15:13.266Z,7.20
2022-08-25T16:17:40.551Z,6.20
2022-08-25T16:20:13.722Z,7.53
2022-08-25T16:22:41.411Z,6.47
2022-08-25T16:25:10.211Z,7.37
2022-08-25T16:27:38.578Z,7.17
2022-08-25T16:30:07.983Z,7.47
2022-08-25T16:32:35.143Z,7.10
2022-08-25T16:35:03.368Z,7.37
2022-08-25T16:37:30.436Z,7.93
2022-08-25T16:39:57.772Z,7.57
2022-08-25T16:42:26.747Z,7.63
2022-08-25T16:44:55.910Z,7.73
2022-08-25T16:47:25.099Z,7.40
2022-08-25T16:49:54.086Z,7.73
2022-08-25T16:52:40.722Z,6.93
2022-08-25T16:55:14.354Z,7.93
2022-08-25T16:57:47.372Z,7.47
2022-08-25T17:00:17.890Z,7.70
2022-08-25T17:02:46.061Z,7.37
2022-08-25T17:05:14.538Z,8.63
2022-08-25T17:07:41.779Z,7.87
2022-08-25T17:10:12.381Z,7.73
2022-08-25T17:12:40.568Z,8.20
2022-08-25T17:15:07.869Z,8.67
2022-08-25T17:17:37.186Z,8.23
2022-08-25T17:20:04.876Z,8.07
2022-08-25T17:22:31.980Z,7.73
2022-08-25T17:24:59.297Z,8.20
2022-08-25T17:27:28.138Z,7.63
2022-08-25T17:29:55.931Z,7.90
2022-08-25T17:32:28.976Z,8.10
2022-08-25T17:34:57.863Z,8.13
2022-08-25T17:37:25.603Z,7.87
2022-08-25T17:39:56.803Z,8.77
2022-08-25T17:42:31.356Z,7.80
2022-08-25T17:44:58.184Z,8.33
2022-08-25T17:47:25.187Z,10.23
2022-08-25T17:49:51.988Z,8.33
2022-08-25T17:52:22.464Z,9.07
2022-08-25T17:54:52.939Z,8.23
2022-08-25T17:57:22.033Z,8.87
2022-08-25T17:59:48.871Z,8.43
2022-08-25T18:02:15.733Z,8.83
2022-08-25T18:04:42.812Z,8.57
2022-08-25T18:07:10.272Z,8.53
2022-08-25T18:09:37.099Z,8.63
2022-08-25T18:12:04.545Z,8.80
2022-08-25T18:14:31.399Z,9.13
2022-08-25T18:16:58.390Z,8.70
2022-08-25T18:19:25.200Z,8.57
2022-08-25T18:21:52.585Z,8.37
2022-08-25T18:24:19.752Z,8.90
2022-08-25T18:26:46.963Z,8.90
2022-08-25T18:29:14.072Z,8.90
2022-08-25T18:31:45.825Z,9.53
2022-08-25T18:34:15.859Z,9.57
2022-08-25T18:36:42.737Z,9.77
2022-08-25T18:39:34.448Z,10.03
2022-08-25T18:42:02.534Z,9.93
2022-08-25T18:44:29.880Z,9.63
2022-08-25T18:46:56.982Z,9.60
2022-08-25T18:49:26.732Z,8.83
2022-08-25T18:51:55.533Z,9.30
2022-08-25T18:54:23.471Z,8.53
2022-08-25T18:56:53.863Z,9.43
2022-08-25T18:59:23.539Z,9.10
2022-08-25T19:01:52.717Z,9.13
2022-08-25T19:04:19.972Z,10.10
2022-08-25T19:06:46.796Z,9.27
2022-08-25T19:09:13.630Z,8.43
2022-08-25T19:11:43.340Z,9.33
2022-08-25T19:14:12.644Z,8.77
2022-08-25T19:16:42.447Z,8.93
2022-08-25T19:19:13.092Z,8.07
2022-08-25T19:21:41.808Z,9.67
2022-08-25T19:24:10.976Z,12.67
2022-08-25T19:26:38.685Z,8.80
2022-08-25T19:29:13.996Z,9.67
2022-08-25T19:31:42.820Z,17.13
2022-08-25T19:34:13.299Z,9.87
2022-08-25T19:36:41.091Z,9.87
2022-08-25T19:39:12.608Z,9.63
2022-08-25T19:41:39.953Z,9.73
2022-08-25T19:44:07.814Z,9.10
2022-08-25T19:46:37.341Z,10.43
2022-08-25T19:49:08.800Z,9.67
2022-08-25T19:51:38.202Z,10.17
2022-08-25T19:54:08.934Z,9.53
2022-08-25T19:56:44.052Z,10.53
2022-08-25T19:59:22.370Z,11.30
2022-08-25T20:01:49.806Z,12.10
2022-08-25T20:04:16.689Z,11.43
2022-08-25T20:06:48.426Z,10.97
2022-08-25T20:09:35.772Z,10.57
2022-08-25T20:12:06.172Z,10.73
2022-08-25T20:14:33.956Z,10.57
2022-08-25T20:17:02.156Z,10.73
2022-08-25T20:19:30.512Z,10.23
2022-08-25T20:21:57.657Z,10.47
2022-08-25T20:24:43.622Z,10.23
2022-08-25T20:27:10.830Z,10.33
2022-08-25T20:29:37.849Z,10.90
2022-08-25T20:32:05.423Z,11.77
2022-08-25T20:34:32.612Z,10.93
2022-08-25T20:37:00.858Z,11.50
2022-08-25T20:39:27.790Z,11.77
2022-08-25T20:41:55.813Z,12.10
2022-08-25T20:44:23.699Z,12.20
2022-08-25T20:46:51.680Z,11.97
2022-08-25T20:49:21.603Z,12.17
2022-08-25T20:51:48.450Z,11.77
2022-08-25T20:54:18.369Z,11.50
2022-08-25T20:56:45.204Z,12.37
2022-08-25T20:59:12.068Z,11.60
2022-08-25T21:01:39.849Z,11.90
2022-08-25T21:04:19.255Z,11.50
2022-08-25T21:06:47.819Z,11.67
2022-08-25T21:09:19.807Z,11.73
2022-08-25T21:11:47.888Z,11.43
2022-08-25T21:14:15.123Z,12.47
2022-08-25T21:16:46.487Z,12.23
2022-08-25T21:19:26.862Z,12.03
2022-08-25T21:21:59.778Z,12.60
2022-08-25T21:24:28.403Z,13.17
2022-08-25T21:26:57.470Z,13.33
2022-08-25T21:29:28.373Z,13.37
2022-08-25T21:31:56.448Z,13.20
2022-08-25T21:34:23.458Z,13.03
2022-08-25T21:36:50.651Z,12.97
2022-08-25T21:39:19.049Z,13.73
2022-08-25T21:41:46.023Z,13.00
2022-08-25T21:44:14.210Z,12.93
2022-08-25T21:46:41.760Z,12.83
2022-08-25T21:49:20.990Z,13.30
2022-08-25T21:51:50.967Z,13.53
2022-08-25T21:54:24.079Z,12.47
2022-08-25T21:56:53.995Z,12.83
2022-08-25T21:59:25.766Z,13.20
2022-08-25T22:02:07.823Z,12.10
2022-08-25T22:04:38.338Z,13.17
2022-08-25T22:07:06.752Z,12.53
2022-08-25T22:09:33.929Z,13.10
2022-08-25T22:12:00.922Z,12.87
2022-08-25T22:14:29.512Z,12.57
2022-08-25T22:16:57.065Z,13.53
2022-08-25T22:19:24.908Z,13.60
2022-08-25T22:21:52.985Z,13.13
2022-08-25T22:24:20.705Z,13.30
2022-08-25T22:26:49.083Z,13.57
2022-08-25T22:29:25.408Z,13.90
2022-08-25T22:31:59.654Z,14.07
2022-08-25T22:34:32.243Z,13.73
2022-08-25T22:37:01.645Z,13.70
2022-08-25T22:39:28.819Z,13.13
2022-08-25T22:41:55.876Z,12.93
2022-08-25T22:44:23.813Z,13.27
2022-08-25T22:46:50.692Z,13.47
2022-08-25T22:49:18.173Z,13.27
2022-08-25T22:51:46.929Z,13.23
2022-08-25T22:54:15.266Z,13.20
2022-08-25T22:56:42.700Z,14.27
2022-08-25T22:59:13.190Z,13.27
2022-08-25T23:01:41.081Z,13.60
2022-08-25T23:04:08.133Z,13.20
2022-08-25T23:06:35.597Z,12.83
2022-08-25T23:09:06.841Z,13.63
2022-08-25T23:11:33.821Z,13.13
2022-08-25T23:14:00.861Z,13.50
2022-08-25T23:16:29.037Z,13.67
2022-08-25T23:18:56.088Z,13.73
2022-08-25T23:21:42.441Z,14.03
2022-08-25T23:24:11.804Z,13.73
2022-08-25T23:26:42.459Z,14.07
2022-08-25T23:29:18.846Z,13.20
2022-08-25T23:31:47.929Z,12.90
2022-08-25T23:34:16.336Z,14.77
2022-08-25T23:36:43.889Z,14.13
2022-08-25T23:39:11.234Z,14.13
2022-08-25T23:41:38.464Z,13.90
2022-08-25T23:44:06.773Z,14.23
2022-08-25T23:46:36.420Z,13.83
2022-08-25T23:49:05.863Z,13.50
2022-08-25T23:51:37.235Z,14.00
2022-08-25T23:54:09.623Z,14.17
2022-08-25T23:56:44.576Z,14.73
2022-08-25T23:59:19.009Z,14.43
